YGLA

Gladstone Airport

Airport
ICAO code
YGLA
IATA Code
GLT
Summary
ICAO Region
APAC
ICAO Territory
Location

, Queensland

Serving
Gladstone
Elevation
64 ft
Coordinates
23° 52' 11" S , 151° 13' 23" E
Metar
Observation
YGLA 021330Z AUTO 15006KT 9999 // SCT071 BKN083 22/13 Q1011
Station
Gladstone Airport
Date/Time
2022-12-02 13:30:00
Wind direction
150°
Wind speed
06 kts
Lowest cloud amount
scattered clouds
Temperature
22°C
Dew point
13°C
Humidity
56%
QNH
1011 hPa
Weather condition
n/a

Airport map

Aerial View

SKYbrary Partners:

Safety knowledge contributed by: